Time;durP1;ratioP1;P1;durP2;ratioP2;P2;SDS_P1;SDS_P2;PMS_P1;PMS_P2;Temp;Humidity;BMP_temperature;BMP_pressure;BME280_temperature;BME280_humidity;BME280_pressure;Samples;Min_cycle;Max_cycle;Signal;HPM_P1;HPM_P2
2023/07/27 00:00:58;;;;;;;0.00;0.00;;;;;;;;;;5079204;28;20016;-83
2023/07/27 00:03:23;;;;;;;0.00;0.00;;;13.50;99.90;;;;;;5071268;28;20023;-85
2023/07/27 00:05:49;;;;;;;0.10;0.10;;;;;;;;;;5069267;28;20506;-84
2023/07/27 00:08:15;;;;;;;0.00;0.00;;;13.60;99.90;;;;;;5068460;28;20032;-85
2023/07/27 00:10:41;;;;;;;0.00;0.00;;;;;;;;;;5068018;28;20067;-86
2023/07/27 00:13:07;;;;;;;0.00;0.00;;;13.70;99.90;;;;;;5068535;28;20033;-84
2023/07/27 00:15:33;;;;;;;0.00;0.00;;;;;;;;;;5064487;28;20028;-84
2023/07/27 00:17:59;;;;;;;0.00;0.00;;;;;;;;;;5073794;28;20430;-87
2023/07/27 00:20:24;;;;;;;0.00;0.00;;;13.60;99.90;;;;;;5066051;28;20472;-85
2023/07/27 00:22:50;;;;;;;0.00;0.00;;;;;;;;;;5066737;28;20028;-84
2023/07/27 00:25:16;;;;;;;0.00;0.00;;;13.70;99.90;;;;;;5064009;28;20021;-85
2023/07/27 00:27:41;;;;;;;0.00;0.00;;;;;;;;;;5056709;28;20043;-83
2023/07/27 00:30:07;;;;;;;0.00;0.00;;;13.70;99.90;;;;;;5071957;28;20051;-84
2023/07/27 00:32:33;;;;;;;0.00;0.00;;;13.70;99.90;;;;;;5065091;28;20099;-86
2023/07/27 00:34:59;;;;;;;0.00;0.00;;;;;;;;;;5077147;28;20068;-84
2023/07/27 00:37:25;;;;;;;0.00;0.00;;;13.80;99.90;;;;;;5072871;28;20090;-84
2023/07/27 00:39:50;;;;;;;0.00;0.00;;;13.80;99.90;;;;;;5075556;28;20077;-85
2023/07/27 00:42:16;;;;;;;0.00;0.00;;;13.80;99.90;;;;;;5071533;28;20033;-85
2023/07/27 00:44:42;;;;;;;0.00;0.00;;;;;;;;;;5070215;28;20025;-85
2023/07/27 00:47:08;;;;;;;0.00;0.00;;;;;;;;;;5064637;28;20410;-87
2023/07/27 00:49:34;;;;;;;0.00;0.00;;;;;;;;;;5071918;28;20040;-84
2023/07/27 00:59:40;;;;;;;0.00;0.00;;;14.10;99.90;;;;;;5051382;28;20044;-90
2023/07/27 01:02:05;;;;;;;0.00;0.00;;;14.10;99.90;;;;;;5049404;28;20491;-90
2023/07/27 01:04:31;;;;;;;0.00;0.00;;;;;;;;;;5035222;28;20120;-88
2023/07/27 01:06:57;;;;;;;0.00;0.00;;;;;;;;;;5036139;28;20033;-90
2023/07/27 01:09:23;;;;;;;0.00;0.00;;;;;;;;;;5048448;28;20485;-88
2023/07/27 01:12:02;;;;;;;0.00;0.00;;;14.10;99.90;;;;;;5027294;28;20031;-87
2023/07/27 01:14:40;;;;;;;0.00;0.00;;;14.10;99.90;;;;;;5034934;28;20030;-89
2023/07/27 01:17:43;;;;;;;0.00;0.00;;;14.10;99.90;;;;;;5037790;28;20033;-90
2023/07/27 01:20:16;;;;;;;0.00;0.00;;;14.00;99.90;;;;;;5035709;28;20090;-89
2023/07/27 01:22:57;;;;;;;0.00;0.00;;;14.00;99.90;;;;;;5035415;28;20077;-90
2023/07/27 01:25:43;;;;;;;0.00;0.00;;;14.00;99.90;;;;;;5021736;28;20040;-91
2023/07/27 01:28:31;;;;;;;0.00;0.00;;;13.90;99.90;;;;;;5028263;28;20041;-88
2023/07/27 01:31:05;;;;;;;0.00;0.00;;;13.90;99.90;;;;;;5048179;28;20026;-89
2023/07/27 01:33:35;;;;;;;0.00;0.00;;;14.00;99.90;;;;;;5031916;28;20029;-90
2023/07/27 01:36:01;;;;;;;0.00;0.00;;;;;;;;;;5051395;28;20024;-89
2023/07/27 01:38:28;;;;;;;0.00;0.00;;;14.00;99.90;;;;;;5033177;28;20032;-89
2023/07/27 01:40:56;;;;;;;0.00;0.00;;;13.90;99.90;;;;;;5045590;28;20079;-90
2023/07/27 01:43:23;;;;;;;0.00;0.00;;;14.10;99.90;;;;;;5023628;28;20515;-89
2023/07/27 01:45:49;;;;;;;0.00;0.00;;;14.00;99.90;;;;;;5031294;28;20021;-89
2023/07/27 01:48:16;;;;;;;0.00;0.00;;;13.80;99.90;;;;;;5037519;28;20025;-89
2023/07/27 01:50:43;;;;;;;0.00;0.00;;;13.90;99.90;;;;;;5043724;28;20032;-89
2023/07/27 01:53:10;;;;;;;0.00;0.00;;;13.90;99.90;;;;;;5050252;28;20415;-89
2023/07/27 01:55:36;;;;;;;0.00;0.00;;;;;;;;;;5045144;28;20024;-90
2023/07/27 01:58:03;;;;;;;0.00;0.00;;;13.90;99.90;;;;;;5049987;28;20036;-90
2023/07/27 02:00:30;;;;;;;0.00;0.00;;;;;;;;;;5031694;28;20031;-90
2023/07/27 02:02:55;;;;;;;0.00;0.00;;;14.00;99.90;;;;;;5049375;28;20021;-90
2023/07/27 02:05:22;;;;;;;0.00;0.00;;;14.00;99.90;;;;;;5029118;28;20025;-89
2023/07/27 02:07:48;;;;;;;0.00;0.00;;;13.90;99.90;;;;;;5029016;28;20029;-89
2023/07/27 02:10:17;;;;;;;0.00;0.00;;;13.90;99.90;;;;;;5041137;28;20566;-88
2023/07/27 02:12:49;;;;;;;0.00;0.00;;;14.00;99.90;;;;;;5036761;28;20087;-89
2023/07/27 02:15:22;;;;;;;0.00;0.00;;;14.10;99.90;;;;;;5032940;28;20024;-89
2023/07/27 02:17:53;;;;;;;0.00;0.00;;;14.20;99.90;;;;;;5028817;28;20037;-90
2023/07/27 02:20:21;;;;;;;0.00;0.00;;;14.30;99.90;;;;;;5030139;28;20032;-89
2023/07/27 02:22:47;;;;;;;0.00;0.00;;;14.20;99.90;;;;;;5034955;28;20026;-89
2023/07/27 02:25:13;;;;;;;0.00;0.00;;;14.20;99.90;;;;;;5035177;28;20112;-89
2023/07/27 02:27:39;;;;;;;0.00;0.00;;;14.20;99.90;;;;;;5031592;28;20067;-90
2023/07/27 02:30:05;;;;;;;0.00;0.00;;;14.10;99.90;;;;;;5034820;28;20057;-88
2023/07/27 02:32:32;;;;;;;0.00;0.00;;;;;;;;;;5042924;28;20122;-89
2023/07/27 02:34:57;;;;;;;0.00;0.00;;;14.10;99.90;;;;;;5028599;28;20409;-89
2023/07/27 02:37:23;;;;;;;0.00;0.00;;;;;;;;;;5035281;28;20025;-90
2023/07/27 02:39:49;;;;;;;0.00;0.00;;;14.00;99.90;;;;;;5033853;28;20103;-89
2023/07/27 02:42:14;;;;;;;0.00;0.00;;;14.00;99.90;;;;;;5044236;28;20026;-90
2023/07/27 02:44:40;;;;;;;0.00;0.00;;;;;;;;;;5046866;28;20036;-89
2023/07/27 02:47:06;;;;;;;0.00;0.00;;;;;;;;;;5045234;28;20052;-89
2023/07/27 02:49:32;;;;;;;0.00;0.00;;;14.10;99.90;;;;;;5031696;28;20040;-90
2023/07/27 02:51:58;;;;;;;0.00;0.00;;;;;;;;;;5033841;28;20066;-90
2023/07/27 02:54:24;;;;;;;0.00;0.00;;;14.20;99.90;;;;;;5028400;28;20029;-90
2023/07/27 02:56:50;;;;;;;0.00;0.00;;;;;;;;;;5051968;28;20032;-90
2023/07/27 02:59:16;;;;;;;0.00;0.00;;;;;;;;;;5030980;28;20499;-91
2023/07/27 03:01:41;;;;;;;0.00;0.00;;;14.20;99.90;;;;;;5045518;28;20487;-89
2023/07/27 03:04:07;;;;;;;0.00;0.00;;;;;;;;;;5033179;28;20029;-90
2023/07/27 03:06:35;;;;;;;0.00;0.00;;;;;;;;;;5044447;28;20033;-90
2023/07/27 03:09:01;;;;;;;0.00;0.00;;;14.20;99.90;;;;;;5031860;28;20051;-90
2023/07/27 03:11:27;;;;;;;0.00;0.00;;;;;;;;;;5031187;28;20487;-91
2023/07/27 03:13:53;;;;;;;0.00;0.00;;;;;;;;;;5033198;28;20029;-89
2023/07/27 03:16:18;;;;;;;0.00;0.00;;;14.20;99.90;;;;;;5030637;28;20540;-90
2023/07/27 03:18:44;;;;;;;0.00;0.00;;;;;;;;;;5035579;28;20048;-90
2023/07/27 03:21:10;;;;;;;0.00;0.00;;;;;;;;;;5031144;28;20033;-89
2023/07/27 03:23:36;;;;;;;0.00;0.00;;;14.30;99.90;;;;;;5031002;28;20025;-89
2023/07/27 03:26:10;;;;;;;0.00;0.00;;;14.30;99.90;;;;;;5033172;28;20013;-88
2023/07/27 03:28:35;;;;;;;0.00;0.00;;;14.40;99.90;;;;;;5054522;28;20498;-89
2023/07/27 03:31:01;;;;;;;0.00;0.00;;;;;;;;;;5033146;28;20035;-89
2023/07/27 03:33:26;;;;;;;0.00;0.00;;;14.50;99.90;;;;;;5030871;28;20029;-90
2023/07/27 03:35:53;;;;;;;0.00;0.00;;;14.50;99.90;;;;;;5038756;28;20028;-89
2023/07/27 03:38:18;;;;;;;0.00;0.00;;;;;;;;;;5052676;28;20412;-90
2023/07/27 03:40:44;;;;;;;0.00;0.00;;;14.50;99.90;;;;;;5033904;28;20104;-90
2023/07/27 03:43:10;;;;;;;0.00;0.00;;;14.60;99.90;;;;;;5029234;28;20030;-89
2023/07/27 03:45:36;;;;;;;0.00;0.00;;;14.50;99.90;;;;;;5036156;28;20039;-91
2023/07/27 03:48:01;;;;;;;0.00;0.00;;;;;;;;;;5038109;28;20025;-89
2023/07/27 03:50:27;;;;;;;0.00;0.00;;;;;;;;;;5029920;28;20484;-89
2023/07/27 03:52:53;;;;;;;0.00;0.00;;;14.60;99.90;;;;;;5035952;28;20408;-90
2023/07/27 03:55:18;;;;;;;0.00;0.00;;;14.60;99.90;;;;;;5033520;28;20021;-91
2023/07/27 03:57:46;;;;;;;0.00;0.00;;;14.60;99.90;;;;;;5051561;28;20159;-89
2023/07/27 04:00:13;;;;;;;0.00;0.00;;;;;;;;;;5034250;28;20036;-90
2023/07/27 04:02:38;;;;;;;0.00;0.00;;;;;;;;;;5033908;28;20040;-91
2023/07/27 04:05:04;;;;;;;0.00;0.00;;;14.70;99.90;;;;;;5032807;28;20017;-89
2023/07/27 04:07:30;;;;;;;0.00;0.00;;;;;;;;;;5034408;28;20325;-88
2023/07/27 04:09:56;;;;;;;0.00;0.00;;;14.80;99.90;;;;;;5037046;28;20032;-88
2023/07/27 04:12:21;;;;;;;0.00;0.00;;;14.70;99.90;;;;;;5048599;28;20029;-90
2023/07/27 04:14:47;;;;;;;0.00;0.00;;;;;;;;;;5038254;28;20047;-89
2023/07/27 04:17:13;;;;;;;0.00;0.00;;;;;;;;;;5034437;28;20556;-91
2023/07/27 04:19:39;;;;;;;0.00;0.00;;;14.70;99.90;;;;;;5048649;28;20021;-89
2023/07/27 04:22:05;;;;;;;0.00;0.00;;;;;;;;;;5053042;28;20291;-89
2023/07/27 04:24:30;;;;;;;0.00;0.00;;;14.70;99.90;;;;;;5054083;28;20036;-89
2023/07/27 04:26:59;;;;;;;0.00;0.00;;;14.70;99.90;;;;;;5035137;28;20025;-90
2023/07/27 04:29:24;;;;;;;0.00;0.00;;;14.80;99.90;;;;;;5031394;28;20475;-89
2023/07/27 04:31:50;;;;;;;0.00;0.00;;;;;;;;;;5048936;28;20035;-88
2023/07/27 04:34:16;;;;;;;0.00;0.00;;;;;;;;;;5051490;28;20030;-90
2023/07/27 04:36:42;;;;;;;0.00;0.00;;;15.00;99.90;;;;;;5032664;28;20030;-87
2023/07/27 04:39:08;;;;;;;0.00;0.00;;;;;;;;;;5036234;28;20036;-89
2023/07/27 04:41:34;;;;;;;0.00;0.00;;;;;;;;;;5030551;28;20033;-88
2023/07/27 04:43:59;;;;;;;0.00;0.00;;;15.10;99.90;;;;;;5029858;28;20052;-89
2023/07/27 04:46:25;;;;;;;0.00;0.00;;;;;;;;;;5030341;28;20403;-89
2023/07/27 04:48:51;;;;;;;0.00;0.00;;;15.10;99.90;;;;;;5036129;28;20475;-87
2023/07/27 04:51:17;;;;;;;0.00;0.00;;;;;;;;;;5051848;28;20032;-87
2023/07/27 04:53:43;;;;;;;0.00;0.00;;;;;;;;;;5033907;28;20087;-89
2023/07/27 04:56:08;;;;;;;0.00;0.00;;;15.30;99.90;;;;;;5051725;28;20091;-89
2023/07/27 04:58:34;;;;;;;0.00;0.00;;;15.30;99.90;;;;;;5033327;28;20025;-90
2023/07/27 05:01:00;;;;;;;0.00;0.00;;;;;;;;;;5053058;28;20029;-90
2023/07/27 05:03:26;;;;;;;0.00;0.00;;;15.40;99.90;;;;;;5035569;28;20075;-90
2023/07/27 05:05:53;;;;;;;0.00;0.00;;;15.50;99.90;;;;;;5048498;28;20025;-90
2023/07/27 05:08:19;;;;;;;0.00;0.00;;;;;;;;;;5034514;28;20112;-88
2023/07/27 05:10:44;;;;;;;0.00;0.00;;;;;;;;;;5035778;28;20048;-90
2023/07/27 05:13:11;;;;;;;0.00;0.00;;;;;;;;;;5035058;28;20041;-90
2023/07/27 05:15:39;;;;;;;0.00;0.00;;;15.60;99.90;;;;;;5032100;28;20813;-90
2023/07/27 05:18:05;;;;;;;0.00;0.00;;;15.50;99.90;;;;;;5032462;28;20404;-90
2023/07/27 05:20:32;;;;;;;0.00;0.00;;;15.60;99.90;;;;;;5051304;28;20029;-90
2023/07/27 05:22:58;;;;;;;0.00;0.00;;;15.70;99.90;;;;;;5032783;28;20104;-88
2023/07/27 05:25:24;;;;;;;0.00;0.00;;;;;;;;;;5036180;28;20093;-88
2023/07/27 05:27:50;;;;;;;0.00;0.00;;;;;;;;;;5032632;28;20123;-89
2023/07/27 05:30:15;;;;;;;0.00;0.00;;;15.90;99.90;;;;;;5031066;28;20100;-90
2023/07/27 05:32:41;;;;;;;0.00;0.00;;;;;;;;;;5029816;28;20514;-89
2023/07/27 05:35:07;;;;;;;0.00;0.00;;;16.00;99.90;;;;;;5053199;28;20029;-88
2023/07/27 05:37:33;;;;;;;0.00;0.00;;;;;;;;;;5036757;28;20029;-87
2023/07/27 05:39:59;;;;;;;0.00;0.00;;;;;;;;;;5054064;28;20024;-89
2023/07/27 05:42:24;;;;;;;0.00;0.00;;;16.00;99.90;;;;;;5033803;28;20060;-89
2023/07/27 05:44:50;;;;;;;0.00;0.00;;;;;;;;;;5032279;28;20052;-89
2023/07/27 05:47:17;;;;;;;0.00;0.00;;;;;;;;;;5034729;28;20032;-88
2023/07/27 05:49:42;;;;;;;0.00;0.00;;;16.20;99.90;;;;;;5049090;28;20021;-90
2023/07/27 05:52:08;;;;;;;0.00;0.00;;;;;;;;;;5053469;28;20324;-88
2023/07/27 05:54:34;;;;;;;0.00;0.00;;;16.10;99.90;;;;;;5047410;28;20029;-88
2023/07/27 05:57:00;;;;;;;0.00;0.00;;;16.10;99.90;;;;;;5052289;28;20037;-88
2023/07/27 05:59:26;;;;;;;0.00;0.00;;;;;;;;;;5028875;28;20035;-88
2023/07/27 06:01:52;;;;;;;0.00;0.00;;;;;;;;;;5031819;28;20025;-88
2023/07/27 06:04:19;;;;;;;0.00;0.00;;;;;;;;;;5029032;28;20382;-88
2023/07/27 06:06:45;;;;;;;0.00;0.00;;;16.20;99.90;;;;;;5048822;28;20020;-90
2023/07/27 06:09:12;;;;;;;0.00;0.00;;;16.30;99.90;;;;;;5028078;28;20410;-91
2023/07/27 06:11:37;;;;;;;0.00;0.00;;;16.30;99.90;;;;;;5033934;28;20025;-87
2023/07/27 06:14:03;;;;;;;0.00;0.00;;;;;;;;;;5034424;28;20029;-88
2023/07/27 06:16:29;;;;;;;0.00;0.00;;;16.20;99.90;;;;;;5044375;28;20085;-90
2023/07/27 06:18:55;;;;;;;0.00;0.00;;;;;;;;;;5033096;28;20108;-88
2023/07/27 06:21:20;;;;;;;0.00;0.00;;;16.30;99.90;;;;;;5027419;28;20111;-87
2023/07/27 06:23:46;;;;;;;0.00;0.00;;;;;;;;;;5050416;28;20427;-89
2023/07/27 06:26:12;;;;;;;0.00;0.00;;;;;;;;;;5027763;28;20033;-88
2023/07/27 06:28:38;;;;;;;0.00;0.00;;;;;;;;;;5025546;28;20064;-86
2023/07/27 06:31:04;;;;;;;0.00;0.00;;;;;;;;;;5028941;28;20033;-87
2023/07/27 06:33:30;;;;;;;0.00;0.00;;;16.50;99.90;;;;;;5033399;28;20049;-87
2023/07/27 06:35:57;;;;;;;0.00;0.00;;;;;;;;;;5054583;28;20032;-89
2023/07/27 06:38:22;;;;;;;0.00;0.00;;;16.50;99.90;;;;;;5030903;28;20025;-89
2023/07/27 06:40:48;;;;;;;0.00;0.00;;;;;;;;;;5028766;28;20025;-89
2023/07/27 06:43:14;;;;;;;0.00;0.00;;;;;;;;;;5032211;28;20024;-88
2023/07/27 06:45:40;;;;;;;0.00;0.00;;;;;;;;;;5046400;28;20084;-89
2023/07/27 06:48:06;;;;;;;0.00;0.00;;;16.60;99.90;;;;;;5035962;28;20041;-89
2023/07/27 06:50:32;;;;;;;0.00;0.00;;;;;;;;;;5030678;28;20021;-87
2023/07/27 06:52:58;;;;;;;0.00;0.00;;;;;;;;;;5034685;28;20131;-89
2023/07/27 06:55:24;;;;;;;0.00;0.00;;;;;;;;;;5035109;28;20083;-90
2023/07/27 06:57:50;;;;;;;0.00;0.00;;;;;;;;;;5043311;23;20068;-89
2023/07/27 07:00:15;;;;;;;0.00;0.00;;;16.70;99.90;;;;;;5054403;28;20547;-89
2023/07/27 07:02:41;;;;;;;0.00;0.00;;;16.60;99.90;;;;;;5038912;28;20166;-89
2023/07/27 07:05:07;;;;;;;0.00;0.00;;;;;;;;;;5054954;28;20103;-89
2023/07/27 07:07:33;;;;;;;0.00;0.00;;;16.50;99.90;;;;;;5050426;28;20399;-88
2023/07/27 07:09:59;;;;;;;0.00;0.00;;;;;;;;;;5051208;28;20035;-85
2023/07/27 07:12:25;;;;;;;0.00;0.00;;;;;;;;;;5051082;28;20029;-89
2023/07/27 07:14:51;;;;;;;0.00;0.00;;;16.60;99.90;;;;;;5035677;28;20120;-89
2023/07/27 07:17:17;;;;;;;0.00;0.00;;;;;;;;;;5039403;28;20123;-89
2023/07/27 07:19:43;;;;;;;0.00;0.00;;;;;;;;;;5030701;28;20502;-87
2023/07/27 07:22:08;;;;;;;0.00;0.00;;;16.70;99.90;;;;;;5042687;28;20084;-89
2023/07/27 07:24:34;;;;;;;0.00;0.00;;;16.80;99.90;;;;;;5047835;28;20052;-85
2023/07/27 07:27:00;;;;;;;0.00;0.00;;;;;;;;;;5035899;28;20113;-84
2023/07/27 07:29:26;;;;;;;0.00;0.00;;;;;;;;;;5025083;28;20043;-83
2023/07/27 07:31:52;;;;;;;0.00;0.00;;;;;;;;;;5034730;28;20035;-84
2023/07/27 07:34:18;;;;;;;0.00;0.00;;;;;;;;;;5047766;28;20116;-85
2023/07/27 07:36:44;;;;;;;0.00;0.00;;;16.70;99.90;;;;;;5050594;28;20059;-85
2023/07/27 07:39:10;;;;;;;0.00;0.00;;;16.90;99.90;;;;;;5049975;28;20017;-85
2023/07/27 07:41:36;;;;;;;0.00;0.00;;;;;;;;;;5036854;28;20017;-85
2023/07/27 07:44:01;;;;;;;0.00;0.00;;;16.90;99.90;;;;;;5034900;28;20376;-86
2023/07/27 07:46:27;;;;;;;0.00;0.00;;;;;;;;;;5051783;28;20032;-85
2023/07/27 07:48:53;;;;;;;0.00;0.00;;;;;;;;;;5048840;28;20091;-84
2023/07/27 07:51:19;;;;;;;0.00;0.00;;;17.10;99.90;;;;;;5032071;28;20013;-84
2023/07/27 07:53:45;;;;;;;0.00;0.00;;;;;;;;;;5047505;28;20032;-86
2023/07/27 07:56:16;;;;;;;0.00;0.00;;;17.30;99.90;;;;;;5046995;28;20472;-84
2023/07/27 07:58:42;;;;;;;0.00;0.00;;;17.50;99.90;;;;;;5027377;28;20029;-85
2023/07/27 08:01:08;;;;;;;0.00;0.00;;;17.60;99.90;;;;;;5050657;28;20029;-85
2023/07/27 08:03:34;;;;;;;0.00;0.00;;;;;;;;;;5032807;28;20487;-85
2023/07/27 08:05:59;;;;;;;0.00;0.00;;;17.80;99.90;;;;;;5049481;28;20049;-85
2023/07/27 08:08:25;;;;;;;0.00;0.00;;;17.80;99.90;;;;;;5031489;28;20071;-83
2023/07/27 08:10:51;;;;;;;0.05;0.05;;;17.70;99.90;;;;;;5029876;28;20055;-84
2023/07/27 08:13:17;;;;;;;0.00;0.00;;;17.60;99.90;;;;;;5032420;28;20029;-84
2023/07/27 08:15:53;;;;;;;0.00;0.00;;;17.80;99.90;;;;;;5031386;28;20905;-87
2023/07/27 08:18:19;;;;;;;0.00;0.00;;;17.60;99.90;;;;;;5032086;28;20025;-84
2023/07/27 08:20:45;;;;;;;0.00;0.00;;;;;;;;;;5030514;28;20029;-85
2023/07/27 08:23:11;;;;;;;0.00;0.00;;;17.80;99.90;;;;;;5048135;28;20025;-84
2023/07/27 08:25:37;;;;;;;0.00;0.00;;;17.80;99.90;;;;;;5025961;28;20316;-86
2023/07/27 08:28:03;;;;;;;0.00;0.00;;;17.60;99.90;;;;;;5049356;28;20522;-84
2023/07/27 08:30:29;;;;;;;0.00;0.00;;;;;;;;;;5028258;28;20045;-85
2023/07/27 08:32:54;;;;;;;0.00;0.00;;;17.50;99.90;;;;;;5031810;28;20472;-84
2023/07/27 08:35:20;;;;;;;0.00;0.00;;;;;;;;;;5032755;28;20028;-85
2023/07/27 08:37:46;;;;;;;0.00;0.00;;;17.50;99.90;;;;;;5030800;28;20422;-85
2023/07/27 08:40:12;;;;;;;0.00;0.00;;;17.50;99.90;;;;;;5045208;28;20033;-84
2023/07/27 08:42:37;;;;;;;0.00;0.00;;;17.50;99.90;;;;;;5034772;28;20112;-84
2023/07/27 08:45:03;;;;;;;0.00;0.00;;;17.50;99.90;;;;;;5046931;28;20057;-85
2023/07/27 08:47:29;;;;;;;0.00;0.00;;;;;;;;;;5034259;28;20031;-85
2023/07/27 08:49:55;;;;;;;0.00;0.00;;;17.40;99.90;;;;;;5028545;28;20029;-85
2023/07/27 08:52:23;;;;;;;0.00;0.00;;;17.60;99.90;;;;;;5033483;28;20029;-84
2023/07/27 08:54:49;;;;;;;0.00;0.00;;;17.60;99.90;;;;;;5029748;28;20057;-85
2023/07/27 08:57:15;;;;;;;0.00;0.00;;;;;;;;;;5030525;28;20083;-85
2023/07/27 08:59:42;;;;;;;0.00;0.00;;;17.80;99.90;;;;;;5030349;28;20028;-86
2023/07/27 09:02:07;;;;;;;0.00;0.00;;;17.70;99.90;;;;;;5048253;28;20029;-84
2023/07/27 09:04:33;;;;;;;0.00;0.00;;;17.70;99.90;;;;;;5033683;28;20457;-85
2023/07/27 09:07:07;;;;;;;0.00;0.00;;;17.60;99.90;;;;;;5034719;28;20032;-85
2023/07/27 09:09:33;;;;;;;0.00;0.00;;;17.60;99.90;;;;;;5043928;28;20029;-85
2023/07/27 09:12:01;;;;;;;0.00;0.00;;;;;;;;;;5032210;28;20082;-86
2023/07/27 09:14:27;;;;;;;0.00;0.00;;;17.60;99.90;;;;;;5029124;28;20025;-86
2023/07/27 09:16:53;;;;;;;0.00;0.00;;;;;;;;;;5033375;28;20032;-83
2023/07/27 09:19:19;;;;;;;0.00;0.00;;;;;;;;;;5031951;28;20476;-83
2023/07/27 09:21:48;;;;;;;0.00;0.00;;;17.40;99.90;;;;;;5040098;28;20048;-85
2023/07/27 09:24:16;;;;;;;0.00;0.00;;;17.60;99.90;;;;;;5046960;28;20029;-84
2023/07/27 09:26:49;;;;;;;0.00;0.00;;;17.50;99.90;;;;;;5045405;28;20033;-86
2023/07/27 09:29:16;;;;;;;0.00;0.00;;;17.70;99.90;;;;;;5031982;28;20077;-86
2023/07/27 09:31:47;;;;;;;0.00;0.00;;;17.70;99.90;;;;;;5043927;28;20025;-85
2023/07/27 09:34:13;;;;;;;0.00;0.00;;;17.60;99.90;;;;;;5043442;28;20032;-86
2023/07/27 09:36:40;;;;;;;0.00;0.00;;;;;;;;;;5030079;28;20036;-86
2023/07/27 09:39:06;;;;;;;0.00;0.00;;;17.70;99.90;;;;;;5047251;28;20021;-87
2023/07/27 09:41:32;;;;;;;0.00;0.00;;;;;;;;;;5026973;28;20527;-85
2023/07/27 09:44:02;;;;;;;0.00;0.00;;;17.80;99.90;;;;;;5024799;28;20025;-85
2023/07/27 09:46:27;;;;;;;0.00;0.00;;;17.90;99.90;;;;;;5045668;28;20020;-85
2023/07/27 09:48:53;;;;;;;0.00;0.00;;;;;;;;;;5028127;28;20017;-85
2023/07/27 09:51:22;;;;;;;0.00;0.00;;;18.20;99.90;;;;;;5025626;28;20546;-86
2023/07/27 09:53:50;;;;;;;0.00;0.00;;;18.20;99.90;;;;;;5043521;28;20028;-84
2023/07/27 09:56:16;;;;;;;0.00;0.00;;;18.30;99.90;;;;;;5033376;28;20097;-85
2023/07/27 09:58:45;;;;;;;0.00;0.00;;;18.40;99.90;;;;;;5048612;28;20097;-86
2023/07/27 10:01:11;;;;;;;0.00;0.00;;;;;;;;;;5036962;28;20021;-84
2023/07/27 10:03:37;;;;;;;0.00;0.00;;;;;;;;;;5045715;28;20028;-87
2023/07/27 10:06:04;;;;;;;0.00;0.00;;;18.90;99.90;;;;;;5030960;28;20070;-87
2023/07/27 10:08:31;;;;;;;0.00;0.00;;;18.70;99.90;;;;;;5027825;28;20040;-85
2023/07/27 10:11:01;;;;;;;0.00;0.00;;;19.00;99.90;;;;;;5027010;28;20028;-87
2023/07/27 10:13:26;;;;;;;;;;;19.00;99.90;;;;;;5046338;28;20027;-86
2023/07/27 10:15:53;;;;;;;0.00;0.00;;;19.20;99.90;;;;;;5031839;28;20003;-85
2023/07/27 10:18:24;;;;;;;0.00;0.00;;;19.30;99.90;;;;;;5026867;28;20098;-85
2023/07/27 10:20:50;;;;;;;0.00;0.00;;;19.30;99.90;;;;;;5027077;28;20068;-86
2023/07/27 10:23:26;;;;;;;0.00;0.00;;;21.30;99.90;;;;;;5028611;28;20483;-85
2023/07/27 10:25:54;;;;;;;0.00;0.00;;;19.30;99.90;;;;;;5030650;28;20047;-86
2023/07/27 10:28:36;;;;;;;0.00;0.00;;;19.30;99.90;;;;;;5046056;28;20535;-87
2023/07/27 10:31:14;;;;;;;0.00;0.00;;;19.10;99.90;;;;;;5030545;28;20052;-86
2023/07/27 10:33:48;;;;;;;0.00;0.00;;;18.90;99.90;;;;;;5026440;28;20058;-87
2023/07/27 10:36:14;;;;;;;0.00;0.00;;;18.90;99.90;;;;;;5031188;28;20067;-86
2023/07/27 10:38:40;;;;;;;0.00;0.00;;;18.90;99.90;;;;;;5045033;28;20032;-87
2023/07/27 10:41:13;;;;;;;0.00;0.00;;;18.90;99.90;;;;;;5046508;28;20395;-86
2023/07/27 10:44:08;;;;;;;0.00;0.00;;;19.10;99.90;;;;;;5030468;28;20047;-86
2023/07/27 10:46:37;;;;;;;0.00;0.00;;;18.70;99.90;;;;;;5027921;28;20021;-87
2023/07/27 10:49:09;;;;;;;;;;;18.70;99.90;;;;;;5029436;28;20395;-85
2023/07/27 10:51:35;;;;;;;0.00;0.00;;;18.70;99.90;;;;;;5040077;28;19944;-87
2023/07/27 10:54:01;;;;;;;0.00;0.00;;;;;;;;;;5046251;28;20061;-87
2023/07/27 10:56:27;;;;;;;0.00;0.00;;;;;;;;;;5025699;28;20025;-86
2023/07/27 10:59:00;;;;;;;0.00;0.00;;;18.90;99.90;;;;;;5025305;28;20527;-85
2023/07/27 11:01:30;;;;;;;0.00;0.00;;;19.00;99.90;;;;;;5044192;28;20017;-85
2023/07/27 11:03:57;;;;;;;0.00;0.00;;;18.90;99.90;;;;;;5043796;28;20049;-86
2023/07/27 11:06:24;;;;;;;0.00;0.00;;;19.10;99.90;;;;;;5040789;28;20492;-87
2023/07/27 11:08:50;;;;;;;0.00;0.00;;;18.90;99.90;;;;;;5027202;28;20317;-85
2023/07/27 11:11:20;;;;;;;0.00;0.00;;;19.00;99.90;;;;;;5029477;28;20021;-85
2023/07/27 11:13:46;;;;;;;0.00;0.00;;;18.90;99.90;;;;;;5030086;28;20025;-87
2023/07/27 11:16:15;;;;;;;0.00;0.00;;;19.10;99.90;;;;;;5028919;28;20029;-87
2023/07/27 11:18:42;;;;;;;0.00;0.00;;;19.40;99.90;;;;;;5023616;28;20033;-83
2023/07/27 11:21:09;;;;;;;0.00;0.00;;;19.30;99.90;;;;;;5043843;28;20222;-87
2023/07/27 11:23:43;;;;;;;0.00;0.00;;;19.50;99.90;;;;;;5031125;28;20377;-87
2023/07/27 11:26:08;;;;;;;0.00;0.00;;;19.70;99.90;;;;;;5025820;28;20033;-87
2023/07/27 11:28:35;;;;;;;0.00;0.00;;;;;;;;;;5047786;28;20111;-85
2023/07/27 11:31:00;;;;;;;0.00;0.00;;;19.80;99.90;;;;;;5028118;28;20091;-84
2023/07/27 11:33:33;;;;;;;0.00;0.00;;;19.80;99.90;;;;;;5049171;28;20025;-87
2023/07/27 11:35:59;;;;;;;0.00;0.00;;;19.70;99.90;;;;;;5025561;28;20090;-86
2023/07/27 11:38:25;;;;;;;0.00;0.00;;;23.50;99.90;;;;;;5022497;28;20483;-87
2023/07/27 11:40:54;;;;;;;0.00;0.00;;;20.20;99.90;;;;;;5027771;28;20056;-86
2023/07/27 11:43:20;;;;;;;;;;;20.10;99.90;;;;;;5046414;28;20033;-86
2023/07/27 11:45:47;;;;;;;0.00;0.00;;;;;;;;;;5043194;28;19951;-86
2023/07/27 11:48:13;;;;;;;0.00;0.00;;;20.30;99.90;;;;;;5031396;28;20083;-88
2023/07/27 11:50:39;;;;;;;0.00;0.00;;;;;;;;;;5031303;28;20033;-86
2023/07/27 11:53:11;;;;;;;0.00;0.00;;;20.50;99.90;;;;;;5027944;28;20028;-85
2023/07/27 11:55:37;;;;;;;0.00;0.00;;;20.30;99.90;;;;;;5030824;28;20025;-85
2023/07/27 11:58:10;;;;;;;0.00;0.00;;;20.30;99.90;;;;;;5046361;28;20098;-88
2023/07/27 12:00:38;;;;;;;0.00;0.00;;;20.40;99.90;;;;;;5047882;28;20128;-87
2023/07/27 12:03:04;;;;;;;0.00;0.00;;;;;;;;;;5051051;28;20031;-88
2023/07/27 12:05:32;;;;;;;0.00;0.00;;;20.50;99.90;;;;;;5033540;28;20210;-87
2023/07/27 12:07:57;;;;;;;0.00;0.00;;;20.50;99.90;;;;;;5048021;28;20036;-87
2023/07/27 12:10:24;;;;;;;0.00;0.00;;;;;;;;;;5029342;28;20445;-86
2023/07/27 12:12:58;;;;;;;0.00;0.00;;;20.50;99.90;;;;;;5043555;28;20091;-86
2023/07/27 12:15:28;;;;;;;0.00;0.00;;;20.60;99.90;;;;;;5053489;28;20025;-86
2023/07/27 12:17:56;;;;;;;0.00;0.00;;;22.00;99.90;;;;;;5023460;28;20037;-88
2023/07/27 12:20:22;;;;;;;0.00;0.00;;;23.00;99.90;;;;;;5027315;28;20021;-87
2023/07/27 12:22:48;;;;;;;0.00;0.00;;;22.00;99.90;;;;;;5043128;28;20034;-89
2023/07/27 12:25:13;;;;;;;0.00;0.00;;;20.40;99.90;;;;;;5045018;28;20037;-85
2023/07/27 12:27:39;;;;;;;0.00;0.00;;;;;;;;;;5046916;28;21809;-86
2023/07/27 12:30:05;;;;;;;0.00;0.00;;;20.50;99.90;;;;;;5043493;28;20028;-87
2023/07/27 12:32:31;;;;;;;0.00;0.00;;;;;;;;;;5031075;28;20037;-87
2023/07/27 12:34:57;;;;;;;0.00;0.00;;;20.40;99.90;;;;;;5048401;28;20095;-86
2023/07/27 12:37:23;;;;;;;0.00;0.00;;;;;;;;;;5032347;28;20025;-86
2023/07/27 12:39:48;;;;;;;0.00;0.00;;;20.40;99.90;;;;;;5029296;28;20407;-88
2023/07/27 12:42:14;;;;;;;0.00;0.00;;;;;;;;;;5034045;28;20066;-88
2023/07/27 12:44:40;;;;;;;0.00;0.00;;;20.30;99.90;;;;;;5051350;28;20547;-88
2023/07/27 12:47:06;;;;;;;0.00;0.00;;;;;;;;;;5030842;28;20116;-87
2023/07/27 12:49:32;;;;;;;0.00;0.00;;;20.40;99.90;;;;;;5048250;28;20033;-86
2023/07/27 12:51:58;;;;;;;0.00;0.00;;;;;;;;;;5025138;28;20091;-86
2023/07/27 12:54:24;;;;;;;0.00;0.00;;;20.30;99.90;;;;;;5044180;28;20063;-86
2023/07/27 12:56:49;;;;;;;0.00;0.00;;;20.30;99.90;;;;;;5027512;28;20510;-88
2023/07/27 12:59:16;;;;;;;0.00;0.00;;;;;;;;;;5035106;28;20306;-91
2023/07/27 13:01:41;;;;;;;0.00;0.00;;;20.30;99.90;;;;;;5033138;28;20021;-89
2023/07/27 13:04:07;;;;;;;0.00;0.00;;;;;;;;;;5048127;28;20036;-91
2023/07/27 13:06:32;;;;;;;0.00;0.00;;;20.20;99.90;;;;;;5047213;28;20126;-89
2023/07/27 13:08:58;;;;;;;0.00;0.00;;;20.30;99.90;;;;;;5040548;28;20033;-90
2023/07/27 13:11:23;;;;;;;0.00;0.00;;;20.30;99.90;;;;;;5047950;28;20442;-90
2023/07/27 13:13:49;;;;;;;0.00;0.00;;;;;;;;;;5048586;28;20033;-91
2023/07/27 13:16:15;;;;;;;0.00;0.00;;;20.30;99.90;;;;;;5037164;28;20483;-91
2023/07/27 13:18:40;;;;;;;0.00;0.00;;;20.30;99.90;;;;;;5026430;28;20018;-90
2023/07/27 13:21:06;;;;;;;0.00;0.00;;;21.70;99.90;;;;;;5031721;28;20029;-90
2023/07/27 13:23:32;;;;;;;0.00;0.00;;;;;;;;;;5031942;28;20067;-90
2023/07/27 13:25:57;;;;;;;0.00;0.00;;;20.20;99.90;;;;;;5048561;28;20036;-90
2023/07/27 13:28:23;;;;;;;0.00;0.00;;;;;;;;;;5025193;28;20029;-91
2023/07/27 13:30:49;;;;;;;0.00;0.00;;;;;;;;;;5027783;28;20040;-90
2023/07/27 13:33:15;;;;;;;0.00;0.00;;;20.40;99.90;;;;;;5030119;28;20067;-91